createdAt,value
2018-07-17T00:04:33.659Z,99.40
2018-07-17T00:09:38.425Z,99.60
2018-07-17T00:14:43.710Z,99.60
2018-07-17T00:19:48.432Z,99.60
2018-07-17T00:24:53.388Z,99.60
2018-07-17T00:29:58.108Z,99.60
2018-07-17T00:35:02.852Z,99.60
2018-07-17T00:40:08.048Z,99.60
2018-07-17T00:45:12.595Z,99.60
2018-07-17T00:50:17.469Z,99.60
2018-07-17T00:55:22.178Z,99.60
2018-07-17T01:05:41.969Z,99.60
2018-07-17T01:10:51.906Z,99.60
2018-07-17T01:15:57.331Z,99.60
2018-07-17T01:21:02.169Z,99.60
2018-07-17T01:26:06.910Z,99.60
2018-07-17T01:31:11.562Z,99.60
2018-07-17T01:36:16.382Z,99.60
2018-07-17T01:41:21.135Z,99.60
2018-07-17T01:46:25.850Z,99.60
2018-07-17T01:51:30.651Z,99.60
2018-07-17T01:56:35.226Z,99.60
2018-07-17T02:01:39.856Z,99.60
2018-07-17T02:06:44.598Z,99.60
2018-07-17T02:11:49.667Z,99.60
2018-07-17T02:16:54.392Z,99.60
2018-07-17T02:21:59.643Z,99.60
2018-07-17T02:27:04.449Z,99.60
2018-07-17T02:32:09.291Z,99.60
2018-07-17T02:37:14.047Z,99.60
2018-07-17T02:42:19.341Z,99.60
2018-07-17T02:47:23.791Z,99.60
2018-07-17T02:52:29.021Z,99.60
2018-07-17T02:57:33.605Z,99.60
2018-07-17T03:02:38.365Z,99.60
2018-07-17T03:07:43.212Z,99.60
2018-07-17T03:12:48.537Z,99.60
2018-07-17T03:17:53.178Z,99.60
2018-07-17T03:22:58.449Z,99.60
2018-07-17T03:28:03.334Z,99.60
2018-07-17T03:33:08.151Z,99.60
2018-07-17T03:38:12.952Z,99.60
2018-07-17T03:43:17.716Z,99.60
2018-07-17T03:48:22.198Z,99.60
2018-07-17T03:53:27.122Z,99.60
2018-07-17T03:58:32.042Z,99.60
2018-07-17T04:03:36.647Z,99.60
2018-07-17T04:08:41.367Z,99.60
2018-07-17T04:13:45.938Z,99.60
2018-07-17T04:18:50.943Z,99.60
2018-07-17T04:23:56.403Z,99.60
2018-07-17T04:29:01.300Z,99.60
2018-07-17T04:34:06.025Z,99.60
2018-07-17T04:39:12.597Z,99.60
2018-07-17T04:44:17.459Z,99.60
2018-07-17T04:49:21.963Z,99.60
2018-07-17T04:54:26.629Z,99.60
2018-07-17T04:59:31.140Z,99.60
2018-07-17T05:04:36.475Z,99.60
2018-07-17T05:09:41.139Z,99.60
2018-07-17T05:14:45.892Z,99.60
2018-07-17T05:19:50.485Z,99.60
2018-07-17T05:24:55.100Z,99.60
2018-07-17T05:30:00.233Z,99.60
2018-07-17T05:35:05.029Z,99.60
2018-07-17T05:40:09.988Z,99.60
2018-07-17T05:45:14.603Z,99.60
2018-07-17T05:50:19.178Z,99.60
2018-07-17T05:55:23.704Z,99.60
2018-07-17T06:00:28.360Z,99.60
2018-07-17T06:05:33.195Z,99.60
2018-07-17T06:10:38.757Z,99.60
2018-07-17T06:15:43.506Z,99.60
2018-07-17T06:20:48.024Z,99.60
2018-07-17T06:25:52.779Z,99.60
2018-07-17T06:30:57.608Z,99.60
2018-07-17T06:36:02.225Z,99.60
2018-07-17T06:41:06.671Z,99.60
2018-07-17T06:46:12.097Z,99.60
2018-07-17T06:51:16.994Z,99.60
2018-07-17T06:56:21.611Z,99.00
2018-07-17T07:01:26.377Z,98.40
2018-07-17T07:06:31.236Z,98.70
2018-07-17T07:11:36.072Z,97.40
2018-07-17T07:16:40.691Z,95.20
2018-07-17T07:21:45.191Z,94.90
2018-07-17T07:26:49.714Z,93.20
2018-07-17T07:36:58.543Z,89.60
2018-07-17T07:42:03.157Z,88.20
2018-07-17T07:47:07.878Z,88.00
2018-07-17T07:52:12.674Z,85.20
2018-07-17T07:57:17.457Z,85.40
2018-07-17T08:02:22.787Z,86.20
2018-07-17T08:07:27.472Z,85.90
2018-07-17T08:12:32.188Z,86.30
2018-07-17T08:17:36.846Z,84.90
2018-07-17T08:22:41.681Z,84.50
2018-07-17T08:27:46.250Z,81.90
2018-07-17T08:32:51.045Z,83.40
2018-07-17T08:37:56.269Z,82.80
2018-07-17T08:43:01.033Z,83.50
2018-07-17T08:48:05.737Z,84.10
2018-07-17T08:53:10.585Z,83.90
2018-07-17T08:58:15.433Z,82.00
2018-07-17T09:03:20.533Z,82.00
2018-07-17T09:08:25.290Z,82.20
2018-07-17T09:13:29.958Z,80.60
2018-07-17T09:18:35.467Z,79.60
2018-07-17T09:23:40.111Z,79.90
2018-07-17T09:28:45.112Z,79.20
2018-07-17T09:33:49.807Z,78.80
2018-07-17T09:38:54.533Z,78.90
2018-07-17T09:43:59.529Z,80.20
2018-07-17T09:49:04.320Z,80.80
2018-07-17T09:54:08.968Z,80.50
2018-07-17T09:59:13.706Z,80.40
2018-07-17T10:04:18.520Z,81.60
2018-07-17T10:09:23.303Z,80.50
2018-07-17T10:14:28.083Z,81.10
2018-07-17T10:19:34.740Z,80.20
2018-07-17T10:24:39.339Z,80.50
2018-07-17T10:29:44.082Z,78.80
2018-07-17T10:34:48.875Z,78.10
2018-07-17T10:39:53.524Z,78.30
2018-07-17T10:44:58.408Z,77.40
2018-07-17T10:50:03.523Z,79.40
2018-07-17T10:55:08.367Z,80.30
2018-07-17T11:00:13.277Z,78.50
2018-07-17T11:05:18.070Z,76.80
2018-07-17T11:10:22.896Z,76.80
2018-07-17T11:15:27.821Z,75.90
2018-07-17T11:20:32.469Z,76.90
2018-07-17T11:25:37.054Z,74.90
2018-07-17T11:30:41.645Z,72.80
2018-07-17T11:35:46.345Z,71.70
2018-07-17T11:40:50.980Z,68.40
2018-07-17T11:45:55.606Z,69.50
2018-07-17T11:51:00.656Z,71.50
2018-07-17T11:56:05.581Z,71.30
2018-07-17T12:01:10.312Z,67.90
2018-07-17T12:06:15.103Z,64.90
2018-07-17T12:11:19.918Z,64.80
2018-07-17T12:16:24.442Z,65.60
2018-07-17T12:21:29.020Z,64.10
2018-07-17T12:26:33.541Z,61.50
2018-07-17T12:31:38.617Z,71.70
2018-07-17T12:36:43.299Z,72.70
2018-07-17T12:41:47.922Z,74.00
2018-07-17T12:46:52.606Z,73.60
2018-07-17T12:51:57.445Z,72.70
2018-07-17T12:57:02.130Z,73.30
2018-07-17T13:02:07.320Z,73.00
2018-07-17T13:07:11.949Z,72.50
2018-07-17T13:12:17.112Z,70.90
2018-07-17T13:17:22.158Z,71.40
2018-07-17T13:22:26.881Z,73.70
2018-07-17T13:32:35.834Z,69.70
2018-07-17T13:37:40.452Z,70.20
2018-07-17T13:42:45.115Z,71.20
2018-07-17T13:47:49.757Z,72.60
2018-07-17T13:52:54.676Z,75.80
2018-07-17T13:57:59.442Z,77.20
2018-07-17T14:03:04.744Z,77.90
2018-07-17T14:08:09.417Z,78.10
2018-07-17T14:13:14.168Z,78.20
2018-07-17T14:18:18.820Z,76.90
2018-07-17T14:23:23.499Z,76.20
2018-07-17T14:28:28.407Z,73.60
2018-07-17T14:33:33.072Z,71.90
2018-07-17T14:38:37.864Z,68.20
2018-07-17T14:43:42.705Z,62.70
2018-07-17T14:48:47.728Z,62.00
2018-07-17T14:53:52.563Z,59.50
2018-07-17T14:58:58.674Z,60.80
2018-07-17T15:04:03.192Z,65.60
2018-07-17T15:09:08.893Z,69.80
2018-07-17T15:14:13.558Z,74.80
2018-07-17T15:19:18.394Z,76.60
2018-07-17T15:24:23.112Z,76.70
2018-07-17T15:29:27.810Z,77.90
2018-07-17T15:34:32.488Z,78.60
2018-07-17T15:39:37.373Z,78.70
2018-07-17T15:44:41.966Z,80.50
2018-07-17T15:49:47.025Z,82.80
2018-07-17T15:54:51.832Z,85.80
2018-07-17T15:59:56.812Z,83.60
2018-07-17T16:05:01.657Z,81.00
2018-07-17T16:10:06.418Z,76.90
2018-07-17T16:15:11.042Z,78.40
2018-07-17T16:20:15.834Z,79.70
2018-07-17T16:25:20.480Z,78.40
2018-07-17T16:30:25.460Z,79.10
2018-07-17T16:35:30.300Z,79.40
2018-07-17T16:40:35.010Z,79.20
2018-07-17T16:45:39.601Z,79.00
2018-07-17T16:50:44.285Z,77.40
2018-07-17T16:55:49.097Z,76.20
2018-07-17T17:00:53.693Z,74.00
2018-07-17T17:05:59.267Z,72.00
2018-07-17T17:11:04.191Z,72.70
2018-07-17T17:16:09.409Z,72.70
2018-07-17T17:21:14.600Z,74.10
2018-07-17T17:26:19.445Z,74.90
2018-07-17T17:31:24.194Z,76.60
2018-07-17T17:36:28.861Z,77.30
2018-07-17T17:41:33.472Z,78.10
2018-07-17T17:46:38.797Z,78.00
2018-07-17T17:51:43.470Z,77.20
2018-07-17T17:56:47.935Z,77.50
2018-07-17T18:01:52.724Z,78.20
2018-07-17T18:06:57.778Z,79.00
2018-07-17T18:12:02.629Z,79.30
2018-07-17T18:17:07.412Z,79.60
2018-07-17T18:22:12.173Z,80.80
2018-07-17T18:27:16.982Z,82.80
2018-07-17T18:32:22.998Z,83.40
2018-07-17T18:37:28.191Z,84.20
2018-07-17T18:42:33.069Z,85.10
2018-07-17T18:47:38.526Z,86.20
2018-07-17T18:52:43.427Z,86.50
2018-07-17T18:57:48.389Z,87.70
2018-07-17T19:02:53.327Z,90.00
2018-07-17T19:07:59.109Z,90.80
2018-07-17T19:13:03.963Z,91.30
2018-07-17T19:18:08.572Z,90.80
2018-07-17T19:23:13.724Z,91.20
2018-07-17T19:28:18.457Z,90.90
2018-07-17T19:33:23.041Z,90.50
2018-07-17T19:38:27.564Z,90.80
2018-07-17T19:43:32.306Z,90.50
2018-07-17T19:53:41.033Z,89.90
2018-07-17T19:58:45.832Z,89.60
2018-07-17T20:03:50.550Z,90.60
2018-07-17T20:08:56.984Z,91.10
2018-07-17T20:14:01.588Z,92.00
2018-07-17T20:19:06.169Z,91.70
2018-07-17T20:24:10.866Z,92.70
2018-07-17T20:29:15.209Z,93.20
2018-07-17T20:34:20.083Z,93.00
2018-07-17T20:39:24.910Z,92.80
2018-07-17T20:44:29.795Z,93.20
2018-07-17T20:49:34.542Z,91.50
2018-07-17T20:54:39.464Z,91.20
2018-07-17T20:59:44.200Z,92.60
2018-07-17T21:04:48.727Z,89.80
2018-07-17T21:09:53.455Z,90.70
2018-07-17T21:14:58.050Z,91.10
2018-07-17T21:20:03.625Z,90.90
2018-07-17T21:25:08.166Z,89.20
2018-07-17T21:30:12.625Z,89.40
2018-07-17T21:35:17.450Z,89.80
2018-07-17T21:40:22.150Z,89.90
2018-07-17T21:50:30.838Z,91.10
2018-07-17T21:55:35.573Z,90.60
2018-07-17T22:00:40.221Z,92.50
2018-07-17T22:05:45.857Z,92.40
2018-07-17T22:10:50.896Z,92.20
2018-07-17T22:15:55.549Z,91.70
2018-07-17T22:21:06.919Z,91.60
2018-07-17T22:26:11.676Z,93.50
2018-07-17T22:31:17.028Z,95.10
2018-07-17T22:36:22.058Z,93.10
2018-07-17T22:41:27.243Z,95.00
2018-07-17T22:46:32.281Z,95.60
2018-07-17T22:51:36.991Z,95.70
2018-07-17T22:56:42.624Z,95.90
2018-07-17T23:01:47.485Z,96.10
2018-07-17T23:06:52.035Z,97.10
2018-07-17T23:17:23.447Z,99.60
2018-07-17T23:23:04.033Z,98.10
2018-07-17T23:28:08.742Z,98.60
2018-07-17T23:38:43.557Z,98.90
2018-07-17T23:43:48.205Z,98.90
2018-07-17T23:48:53.071Z,99.30
2018-07-17T23:53:57.845Z,99.60
2018-07-17T23:59:02.446Z,99.60
